Terminal Aerodrome Forecast
Issued by NWS Grand Forks, ND

Home | Current Version | Previous Version | Graphics & Text | Print | Product List | Glossary On
Versions: 1 2 3 4 5 6 7 8 9 10 11 12 13 14 15 16 17 18
000
FTUS43 KFGF 232300
TAFFAR
TAF
KFAR 232320Z 2400/2424 15015KT P6SM OVC015
      TEMPO 2403/2406 SCT015
     FM240900 15017KT P6SM BKN100
     FM241500 15020KT P6SM BKN080=

USA.gov is the U.S. government's official web portal to all federal, state and local government web resources and services.